Terminal Aerodrome Forecast
Issued by NWS Mt. Holly, NJ

Home | Current Version | Previous Version | Text Only | Print | Product List | Glossary On
Versions: 1 2 3 4 5 6 7 8 9 10 11 12 13 14 15 16 17 18 19 20 21 22 23 24 25
392
FTUS41 KPHI 252206 AAA
TAFRDG
TAF AMD
KRDG 252206Z 2522/2618 08005KT P6SM OVC009
      TEMPO 2523/2602 2SM TSRA BKN007CB
     FM260200 VRB03KT P6SM OVC008
      TEMPO 2602/2606 2SM TSRA BKN005CB
     FM260600 28005KT P6SM OVC008
     FM261200 28008KT P6SM BKN050 BKN070
     FM261500 29014G21KT P6SM SCT025 BKN060=

USA.gov is the U.S. government's official web portal to all federal, state and local government web resources and services.